DTMB/MIR METAR and TAF weather

Enter ICAO airport designator
Station Type Date Time Source
DTMB METAR 2020/09/26 23:30 UTC NOAA

DTMB 262330Z 24007KT 8000 NSC 19/11 Q1013


Station Type Date Time Source
DTMB Decoded METAR 2020/09/26 23:30 UTC NOAA

Habib Bourguiba , Tunisia (DTMB) 35-46N 010-45E
Sep 26, 2020 - 07:30 PM EDT / 2020.09.26 2330 UTC
Wind: from the WSW (240 degrees) at 8 MPH (7 KT):0
Visibility: 4 mile(s):0
Temperature: 66 F (19 C)
Dew Point: 51 F (11 C)
Relative Humidity: 59%
Pressure (altimeter): 29.91 in. Hg (1013 hPa)
ob: DTMB 262330Z 24007KT 8000 NSC 19/11 Q1013
cycle: 23

Station Type Date Time Source
DTMB TAF 2020/09/26 18:54 UTC NOAA

TAF DTMB 261700Z 2618/2718 33016KT 8000 NSC PROB40
TEMPO 2712/2716 4000 SHRA SCT023TCU
TEMPO 2716/2718 34027G41KT 3000 SQ

Example: see airport list